Time;durP1;ratioP1;P1;durP2;ratioP2;P2;SDS_P1;SDS_P2;PMS_P1;PMS_P2;Temp;Humidity;BMP_temperature;BMP_pressure;BME280_temperature;BME280_humidity;BME280_pressure;Samples;Min_cycle;Max_cycle;Signal;HPM_P1;HPM_P2
2022/05/14 00:01:05;;;;;;;8.57;3.10;;;15.10;56.80;;;;;;5117563;28;20183;-86
2022/05/14 00:03:33;;;;;;;3.75;2.50;;;15.00;56.80;;;;;;5118169;28;20208;-85
2022/05/14 00:06:03;;;;;;;4.75;2.15;;;15.00;57.00;;;;;;5115652;28;20246;-86
2022/05/14 00:08:30;;;;;;;6.18;2.53;;;15.00;56.90;;;;;;5118612;28;20191;-85
2022/05/14 00:13:41;;;;;;;5.00;2.13;;;15.00;57.00;;;;;;5107888;28;20306;-84
2022/05/14 00:16:08;;;;;;;5.57;2.67;;;14.90;57.30;;;;;;5127188;28;20198;-85
2022/05/14 00:18:35;;;;;;;6.72;2.60;;;14.90;57.50;;;;;;5121851;28;20472;-86
2022/05/14 00:21:01;;;;;;;8.25;2.60;;;14.90;57.40;;;;;;5116415;28;20175;-85
2022/05/14 00:23:28;;;;;;;9.83;2.33;;;14.90;57.60;;;;;;5116836;28;20178;-85
2022/05/14 00:25:54;;;;;;;5.53;2.42;;;14.90;57.70;;;;;;5118728;28;20435;-85
2022/05/14 00:28:20;;;;;;;6.07;2.30;;;14.80;58.00;;;;;;5125578;28;20187;-85
2022/05/14 00:30:46;;;;;;;6.32;2.30;;;14.80;59.00;;;;;;5126041;28;20175;-86
2022/05/14 00:33:12;;;;;;;3.60;1.85;;;14.80;58.30;;;;;;5122005;28;20190;-87
2022/05/14 00:35:39;;;;;;;7.37;1.80;;;14.70;58.30;;;;;;5115406;28;20178;-86
2022/05/14 00:38:05;;;;;;;2.88;1.98;;;14.70;58.40;;;;;;5115903;28;21140;-86
2022/05/14 00:40:40;;;;;;;4.30;1.75;;;14.70;58.70;;;;;;5114320;28;20183;-85
2022/05/14 00:43:07;;;;;;;3.92;2.00;;;14.60;58.70;;;;;;5098336;28;20182;-85
2022/05/14 00:45:36;;;;;;;5.10;2.20;;;14.60;58.50;;;;;;5115149;28;20179;-86
2022/05/14 00:48:03;;;;;;;11.68;3.20;;;14.70;59.00;;;;;;5115806;28;20231;-85
2022/05/14 00:50:43;;;;;;;5.63;2.13;;;14.60;59.00;;;;;;5115499;28;20175;-86
2022/05/14 00:53:13;;;;;;;7.07;2.13;;;14.60;59.00;;;;;;5116422;28;20562;-85
2022/05/14 00:55:40;;;;;;;7.35;2.63;;;14.50;59.30;;;;;;5115121;28;20232;-85
2022/05/14 00:58:08;;;;;;;8.30;2.65;;;14.50;59.30;;;;;;5115139;28;20213;-85
2022/05/14 01:00:34;;;;;;;4.80;2.22;;;14.50;59.80;;;;;;5114083;28;20178;-85
2022/05/14 01:03:00;;;;;;;5.10;2.85;;;14.40;59.80;;;;;;5115098;28;20636;-86
2022/05/14 01:05:27;;;;;;;8.07;3.40;;;14.40;59.80;;;;;;5115970;28;20239;-85
2022/05/14 01:07:55;;;;;;;3.50;2.10;;;14.40;60.00;;;;;;5115822;28;20259;-85
2022/05/14 01:10:26;;;;;;;5.22;2.42;;;14.40;60.10;;;;;;5113778;28;20324;-84
2022/05/14 01:13:00;;;;;;;8.45;2.97;;;14.30;60.20;;;;;;5114315;28;20216;-84
2022/05/14 01:15:46;;;;;;;6.85;3.17;;;14.40;60.40;;;;;;5115896;28;20751;-85
2022/05/14 01:18:12;;;;;;;12.38;3.22;;;14.30;60.70;;;;;;5118317;28;20206;-86
2022/05/14 01:20:39;;;;;;;6.77;2.83;;;14.30;60.90;;;;;;5114912;28;20228;-85
2022/05/14 01:23:27;;;;;;;5.00;2.90;;;14.30;61.30;;;;;;5114541;28;20413;-85
2022/05/14 01:28:50;;;;;;;6.05;2.90;;;14.20;61.70;;;;;;5114661;28;20198;-85
2022/05/14 01:31:15;;;;;;;8.23;3.90;;;14.20;62.30;;;;;;5114647;28;20175;-85
2022/05/14 01:33:41;;;;;;;5.63;2.80;;;14.20;62.40;;;;;;5111546;28;20179;-85
2022/05/14 01:36:11;;;;;;;7.53;2.90;;;14.20;62.60;;;;;;5095100;28;20180;-86
2022/05/14 01:38:37;;;;;;;4.50;2.40;;;14.20;62.50;;;;;;5095181;28;20523;-85
2022/05/14 01:41:03;;;;;;;5.97;2.43;;;14.20;62.40;;;;;;5093985;28;20172;-85
2022/05/14 01:43:29;;;;;;;8.98;4.68;;;14.10;62.70;;;;;;5095217;28;20456;-85
2022/05/14 01:45:55;;;;;;;5.75;3.50;;;14.10;62.80;;;;;;5094129;28;20662;-86
2022/05/14 01:48:21;;;;;;;12.73;3.70;;;14.10;63.10;;;;;;5093576;28;20175;-85
2022/05/14 01:50:46;;;;;;;8.97;3.50;;;14.10;63.00;;;;;;5076592;28;20191;-85
2022/05/14 01:53:12;;;;;;;6.20;3.20;;;14.00;63.20;;;;;;5094964;28;20172;-86
2022/05/14 01:55:38;;;;;;;5.60;3.10;;;14.00;63.20;;;;;;5077225;28;20184;-85
2022/05/14 01:58:36;;;;;;;8.40;3.70;;;14.00;63.60;;;;;;5094129;28;20229;-86
2022/05/14 02:00:50;;;;;;;7.63;4.10;;;14.00;63.70;;;;;;5096524;28;20188;-85
2022/05/14 02:03:16;;;;;;;6.43;3.13;;;14.00;63.80;;;;;;5097147;28;20187;-86
2022/05/14 02:05:42;;;;;;;7.25;3.40;;;13.90;64.10;;;;;;5096555;28;20472;-85
2022/05/14 02:08:08;;;;;;;6.27;3.40;;;13.90;64.10;;;;;;5100332;28;20184;-86
2022/05/14 02:10:34;;;;;;;7.30;3.90;;;13.90;64.40;;;;;;5093099;28;20207;-86
2022/05/14 02:13:00;;;;;;;4.70;2.70;;;13.90;64.40;;;;;;5111235;28;20167;-86
2022/05/14 02:15:25;;;;;;;8.70;3.27;;;13.80;64.50;;;;;;5106993;28;20580;-86
2022/05/14 02:17:51;;;;;;;6.20;3.27;;;13.90;64.60;;;;;;5099566;28;20200;-86
2022/05/14 02:20:17;;;;;;;8.40;3.20;;;13.80;64.70;;;;;;5109212;28;20324;-86
2022/05/14 02:22:44;;;;;;;13.10;3.13;;;13.80;64.80;;;;;;5121317;28;20202;-86
2022/05/14 02:25:10;;;;;;;5.90;2.85;;;13.80;64.90;;;;;;5120057;28;20415;-85
2022/05/14 02:27:36;;;;;;;9.60;3.45;;;13.80;65.20;;;;;;5119952;28;20182;-85
2022/05/14 02:30:02;;;;;;;12.50;3.50;;;13.80;65.20;;;;;;5120668;28;20587;-85
2022/05/14 02:32:28;;;;;;;5.95;2.90;;;13.70;65.30;;;;;;5121471;28;20174;-85
2022/05/14 02:34:55;;;;;;;7.60;3.77;;;13.70;65.40;;;;;;5124330;28;20683;-84
2022/05/14 02:37:26;;;;;;;14.85;4.30;;;13.60;65.30;;;;;;5127510;28;20869;-85
2022/05/14 02:39:52;;;;;;;7.13;3.05;;;13.70;65.80;;;;;;5127727;28;20199;-85
2022/05/14 02:42:18;;;;;;;8.15;3.30;;;13.70;65.80;;;;;;5129781;28;20193;-86
2022/05/14 02:44:44;;;;;;;9.02;3.10;;;13.60;65.90;;;;;;5132547;28;20191;-85
2022/05/14 02:47:10;;;;;;;8.07;3.23;;;13.60;66.10;;;;;;5132992;28;20175;-86
2022/05/14 02:49:36;;;;;;;10.98;3.45;;;13.60;66.40;;;;;;5132792;28;20485;-85
2022/05/14 02:52:02;;;;;;;4.83;3.10;;;13.60;66.60;;;;;;5138296;28;20223;-85
2022/05/14 02:54:28;;;;;;;15.10;5.03;;;13.60;66.70;;;;;;5128328;28;20471;-85
2022/05/14 02:56:54;;;;;;;7.37;4.13;;;13.60;66.70;;;;;;5117435;28;20583;-85
2022/05/14 02:59:20;;;;;;;6.47;3.63;;;13.60;66.90;;;;;;5118608;28;20199;-85
2022/05/14 03:01:49;;;;;;;10.63;3.30;;;13.50;67.10;;;;;;5121917;28;20258;-85
2022/05/14 03:04:17;;;;;;;12.30;3.55;;;13.50;67.20;;;;;;5117011;28;20171;-85
2022/05/14 03:06:43;;;;;;;7.25;3.40;;;13.50;68.00;;;;;;5119877;28;20178;-85
2022/05/14 03:09:09;;;;;;;8.73;3.40;;;13.40;67.30;;;;;;5116573;28;20203;-86
2022/05/14 03:11:35;;;;;;;11.27;3.08;;;13.40;67.30;;;;;;5117658;28;20179;-85
2022/05/14 03:14:01;;;;;;;4.50;2.87;;;13.40;67.50;;;;;;5117537;28;20189;-85
2022/05/14 03:16:26;;;;;;;5.23;2.80;;;13.40;67.50;;;;;;5116276;28;20465;-86
2022/05/14 03:18:52;;;;;;;9.40;3.63;;;13.40;67.60;;;;;;5117327;28;20199;-85
2022/05/14 03:21:18;;;;;;;6.80;3.20;;;13.30;67.70;;;;;;5116675;28;20171;-85
2022/05/14 03:23:43;;;;;;;7.33;3.20;;;13.40;67.80;;;;;;5115748;28;20258;-85
2022/05/14 03:26:09;;;;;;;6.27;3.43;;;13.30;67.90;;;;;;5115398;28;20617;-85
2022/05/14 03:28:35;;;;;;;12.80;3.43;;;13.30;68.10;;;;;;5117201;28;20195;-86
2022/05/14 03:31:01;;;;;;;11.57;3.77;;;13.30;68.20;;;;;;5115801;28;20227;-85
2022/05/14 03:33:26;;;;;;;17.40;3.50;;;13.30;68.20;;;;;;5115503;28;20179;-85
2022/05/14 03:35:52;;;;;;;8.30;3.97;;;13.30;68.30;;;;;;5099028;28;20447;-86
2022/05/14 03:38:18;;;;;;;8.00;3.33;;;13.30;68.50;;;;;;5116105;28;20285;-85
2022/05/14 03:40:44;;;;;;;11.53;3.77;;;13.30;68.50;;;;;;5116027;28;20425;-85
2022/05/14 03:43:09;;;;;;;12.53;4.37;;;13.20;68.50;;;;;;5116413;28;20413;-86
2022/05/14 03:45:35;;;;;;;13.10;4.00;;;13.20;68.70;;;;;;5116691;28;20179;-86
2022/05/14 03:48:01;;;;;;;4.97;3.40;;;13.20;68.70;;;;;;5115477;28;20417;-85
2022/05/14 03:50:27;;;;;;;8.90;3.87;;;13.10;68.60;;;;;;5115406;28;20199;-85
2022/05/14 03:52:52;;;;;;;8.87;4.03;;;13.10;68.60;;;;;;5116000;28;20171;-85
2022/05/14 03:55:18;;;;;;;6.50;3.80;;;13.10;68.70;;;;;;5117239;28;20658;-85
2022/05/14 03:57:44;;;;;;;5.83;3.60;;;13.10;68.90;;;;;;5115161;28;20199;-85
2022/05/14 04:00:11;;;;;;;6.20;3.40;;;13.10;69.10;;;;;;5116524;28;20835;-85
2022/05/14 04:02:37;;;;;;;5.07;3.38;;;13.10;69.00;;;;;;5121080;28;20211;-84
2022/05/14 04:05:03;;;;;;;10.38;3.40;;;13.10;69.10;;;;;;5116090;28;20273;-84
2022/05/14 04:07:30;;;;;;;10.93;4.25;;;13.10;69.30;;;;;;5114351;28;20179;-84
2022/05/14 04:09:56;;;;;;;13.98;4.00;;;13.10;69.40;;;;;;5115435;28;20199;-85
2022/05/14 04:12:22;;;;;;;9.52;3.50;;;13.10;69.50;;;;;;5118694;28;20186;-85
2022/05/14 04:14:48;;;;;;;6.80;2.90;;;13.10;69.40;;;;;;5117385;28;20187;-85
2022/05/14 04:17:13;;;;;;;9.83;3.90;;;13.10;69.50;;;;;;5116224;28;20476;-85
2022/05/14 04:19:39;;;;;;;17.73;4.80;;;13.10;69.40;;;;;;5115172;28;20440;-85
2022/05/14 04:22:05;;;;;;;6.40;3.10;;;13.10;69.50;;;;;;5116505;28;20171;-86
2022/05/14 04:24:32;;;;;;;8.00;3.80;;;13.10;69.60;;;;;;5116167;28;20214;-86
2022/05/14 04:26:58;;;;;;;7.53;3.85;;;13.10;69.70;;;;;;5115637;28;20227;-85
2022/05/14 04:29:24;;;;;;;9.57;4.85;;;13.10;69.60;;;;;;5115882;28;20191;-86
2022/05/14 04:31:50;;;;;;;7.83;4.30;;;13.10;69.70;;;;;;5116116;28;20290;-86
2022/05/14 04:34:18;;;;;;;8.77;3.13;;;13.10;69.70;;;;;;5117702;28;20420;-86
2022/05/14 04:36:44;;;;;;;6.95;4.15;;;13.20;69.50;;;;;;5114725;28;20523;-86
2022/05/14 04:39:10;;;;;;;9.50;4.60;;;13.20;69.50;;;;;;5114958;28;20233;-85
2022/05/14 04:41:35;;;;;;;12.27;4.35;;;13.20;69.50;;;;;;5120520;28;20442;-86
2022/05/14 04:44:01;;;;;;;6.00;3.23;;;13.20;69.50;;;;;;5134663;28;20179;-86
2022/05/14 04:46:27;;;;;;;8.15;3.72;;;13.30;69.40;;;;;;5134090;28;20163;-85
2022/05/14 04:48:54;;;;;;;7.63;3.77;;;13.30;69.50;;;;;;5126966;28;20604;-85
2022/05/14 04:51:20;;;;;;;7.68;3.90;;;13.30;69.50;;;;;;5116604;28;20889;-85
2022/05/14 04:53:46;;;;;;;8.52;4.28;;;13.30;69.50;;;;;;5115200;28;20262;-85
2022/05/14 04:56:11;;;;;;;5.63;3.63;;;13.40;69.50;;;;;;5118688;28;20199;-84
2022/05/14 04:58:37;;;;;;;11.73;4.57;;;13.40;69.30;;;;;;5116367;28;20588;-84
2022/05/14 05:01:03;;;;;;;6.60;4.03;;;13.50;69.10;;;;;;5116625;28;20186;-84
2022/05/14 05:03:29;;;;;;;11.60;4.80;;;13.60;69.20;;;;;;5119275;28;20401;-84
2022/05/14 05:05:58;;;;;;;10.77;4.97;;;13.70;69.20;;;;;;5117989;28;20423;-85
2022/05/14 05:08:26;;;;;;;13.90;5.18;;;13.70;69.00;;;;;;5116389;28;20204;-84
2022/05/14 05:10:52;;;;;;;10.27;4.65;;;13.70;69.00;;;;;;5117634;28;20209;-84
2022/05/14 05:13:21;;;;;;;15.65;5.47;;;13.70;68.90;;;;;;5116488;28;20529;-85
2022/05/14 05:15:47;;;;;;;18.30;5.47;;;13.80;69.00;;;;;;5115752;28;20217;-85
2022/05/14 05:18:14;;;;;;;8.52;5.05;;;13.80;69.00;;;;;;5116775;28;20223;-85
2022/05/14 05:20:43;;;;;;;8.27;4.43;;;14.00;68.70;;;;;;5119174;28;20175;-85
2022/05/14 05:23:12;;;;;;;12.63;6.05;;;14.20;68.40;;;;;;5120699;28;20643;-85
2022/05/14 05:25:37;;;;;;;10.35;5.95;;;14.30;67.90;;;;;;5123105;28;20186;-85
2022/05/14 05:28:03;;;;;;;7.63;4.80;;;14.50;67.70;;;;;;5126988;28;20171;-86
2022/05/14 05:30:29;;;;;;;14.97;5.13;;;14.80;67.40;;;;;;5133203;28;20182;-84
2022/05/14 05:32:55;;;;;;;12.93;6.07;;;15.40;65.90;;;;;;5124635;28;20896;-85
2022/05/14 05:35:21;;;;;;;15.50;6.00;;;15.80;63.70;;;;;;5118982;28;20262;-85
2022/05/14 05:37:48;;;;;;;8.30;5.03;;;16.30;62.10;;;;;;5119422;28;20461;-85
2022/05/14 05:40:14;;;;;;;16.73;6.60;;;16.60;60.70;;;;;;5120716;28;20432;-85
2022/05/14 05:42:41;;;;;;;19.10;6.80;;;16.90;59.90;;;;;;5120064;28;20292;-85
2022/05/14 05:45:07;;;;;;;11.80;4.75;;;17.20;59.20;;;;;;5123039;28;20242;-85
2022/05/14 05:47:33;;;;;;;13.90;5.45;;;18.10;57.00;;;;;;5119438;28;20198;-85
2022/05/14 05:49:59;;;;;;;10.20;5.47;;;18.60;55.20;;;;;;5120776;28;20248;-85
2022/05/14 05:52:25;;;;;;;12.57;6.47;;;18.80;54.20;;;;;;5125631;28;20179;-84
2022/05/14 05:57:39;;;;;;;11.83;5.03;;;18.40;55.00;;;;;;5134005;28;20227;-85
2022/05/14 06:00:11;;;;;;;13.57;6.50;;;18.90;54.90;;;;;;5133334;28;20436;-86
2022/05/14 06:02:37;;;;;;;13.30;5.57;;;19.00;53.70;;;;;;5132578;28;20171;-86
2022/05/14 06:05:04;;;;;;;12.23;5.20;;;19.60;52.90;;;;;;5136949;28;20408;-86
2022/05/14 06:07:29;;;;;;;21.33;6.30;;;20.10;51.10;;;;;;5124891;28;20932;-87
2022/05/14 06:09:55;;;;;;;14.93;5.90;;;20.10;50.70;;;;;;5122016;28;20456;-87
2022/05/14 06:12:22;;;;;;;13.50;6.40;;;19.90;51.50;;;;;;5120426;28;20252;-87
2022/05/14 06:14:47;;;;;;;16.73;6.50;;;19.70;51.90;;;;;;5119857;28;20413;-85
2022/05/14 06:17:13;;;;;;;9.63;5.33;;;20.10;51.30;;;;;;5118816;28;20480;-85
2022/05/14 06:19:39;;;;;;;9.60;5.23;;;20.20;51.00;;;;;;5119610;28;20195;-86
2022/05/14 06:22:05;;;;;;;13.27;6.30;;;20.70;49.70;;;;;;5119129;28;20181;-86
2022/05/14 06:24:31;;;;;;;11.80;7.00;;;21.10;48.70;;;;;;5120697;28;20179;-86
2022/05/14 06:26:57;;;;;;;18.70;7.60;;;21.10;49.00;;;;;;5122609;28;20404;-86
2022/05/14 06:29:23;;;;;;;14.13;7.60;;;20.50;49.80;;;;;;5119024;28;20443;-86
2022/05/14 06:31:49;;;;;;;13.47;7.30;;;20.20;50.80;;;;;;5117323;28;20176;-86
2022/05/14 06:34:15;;;;;;;13.97;6.50;;;20.00;51.80;;;;;;5119780;28;20468;-86
2022/05/14 06:36:51;;;;;;;14.90;6.13;;;20.10;52.00;;;;;;5117330;28;20175;-86
2022/05/14 06:39:18;;;;;;;20.17;7.97;;;20.50;51.50;;;;;;5117649;28;20490;-86
2022/05/14 06:41:44;;;;;;;17.40;7.20;;;20.80;50.20;;;;;;5117952;28;20450;-86
2022/05/14 06:44:09;;;;;;;12.00;6.87;;;21.10;49.80;;;;;;5119090;28;20452;-85
2022/05/14 06:46:35;;;;;;;9.77;6.60;;;20.80;49.90;;;;;;5117996;28;20829;-86
2022/05/14 06:49:03;;;;;;;15.77;7.13;;;21.60;48.60;;;;;;5118119;28;20187;-86
2022/05/14 06:51:31;;;;;;;17.30;6.20;;;21.90;47.80;;;;;;5119039;28;20417;-86
2022/05/14 06:54:02;;;;;;;18.67;8.43;;;22.50;46.70;;;;;;5123774;28;20409;-86
2022/05/14 06:56:31;;;;;;;19.93;7.00;;;22.20;45.80;;;;;;5126302;28;20402;-86
2022/05/14 06:58:58;;;;;;;18.37;7.87;;;21.90;46.70;;;;;;5124485;28;20822;-88
2022/05/14 07:01:24;;;;;;;10.57;6.67;;;22.00;47.10;;;;;;5123500;28;20869;-86
2022/05/14 07:06:40;;;;;;;17.97;5.87;;;22.30;46.50;;;;;;5119882;28;20392;-88
2022/05/14 07:09:11;;;;;;;15.90;7.50;;;22.20;46.90;;;;;;5121032;28;20429;-86
2022/05/14 07:11:40;;;;;;;17.80;8.33;;;22.30;46.90;;;;;;5121792;28;20416;-87
2022/05/14 07:14:06;;;;;;;16.23;7.30;;;22.20;46.30;;;;;;5119870;28;20511;-86
2022/05/14 07:16:33;;;;;;;13.13;6.80;;;22.20;46.50;;;;;;5122578;28;20425;-86
2022/05/14 07:18:59;;;;;;;12.20;6.87;;;22.50;46.10;;;;;;5132292;28;20440;-86
2022/05/14 07:21:24;;;;;;;13.80;6.60;;;22.50;44.90;;;;;;5132149;28;20424;-86
2022/05/14 07:23:50;;;;;;;14.23;7.60;;;22.20;45.00;;;;;;5126537;28;20232;-86
2022/05/14 07:26:16;;;;;;;15.77;8.40;;;21.20;47.80;;;;;;5118268;28;20232;-87
2022/05/14 07:28:42;;;;;;;17.53;7.67;;;20.50;50.10;;;;;;5118820;28;20448;-87
2022/05/14 07:31:08;;;;;;;14.53;7.70;;;20.00;51.80;;;;;;5118244;28;20217;-87
2022/05/14 07:33:36;;;;;;;17.90;8.30;;;19.60;53.30;;;;;;5116542;28;20933;-89
2022/05/14 07:36:15;;;;;;;18.93;8.30;;;19.20;54.50;;;;;;5116814;28;20432;-87
2022/05/14 07:38:41;;;;;;;12.65;8.02;;;18.90;56.10;;;;;;5117234;28;20460;-86
2022/05/14 07:41:07;;;;;;;14.35;7.30;;;18.60;56.90;;;;;;5116107;28;20172;-86
2022/05/14 07:43:36;;;;;;;12.65;7.38;;;18.60;57.30;;;;;;5117650;28;20175;-86
2022/05/14 07:46:06;;;;;;;13.32;7.40;;;18.60;58.00;;;;;;5116603;28;20175;-87
2022/05/14 07:48:35;;;;;;;18.85;9.15;;;18.50;58.50;;;;;;5117962;28;20218;-86
2022/05/14 07:51:03;;;;;;;18.80;7.75;;;18.40;58.70;;;;;;5117072;28;20212;-86
2022/05/14 07:53:32;;;;;;;13.35;7.03;;;18.30;59.10;;;;;;5118897;27;20186;-87
2022/05/14 07:55:59;;;;;;;13.88;8.20;;;18.40;57.90;;;;;;5119165;28;20569;-86
2022/05/14 07:58:25;;;;;;;16.42;7.70;;;18.40;57.90;;;;;;5122319;28;21879;-87
2022/05/14 08:00:51;;;;;;;19.43;9.63;;;18.10;59.20;;;;;;5123221;28;20176;-87
2022/05/14 08:03:17;;;;;;;21.43;8.53;;;17.90;60.10;;;;;;5125482;27;20467;-86
2022/05/14 08:05:43;;;;;;;20.92;8.88;;;17.70;60.40;;;;;;5115652;28;20424;-88
2022/05/14 08:08:09;;;;;;;14.50;6.43;;;17.70;60.60;;;;;;5116757;28;20176;-87
2022/05/14 08:10:36;;;;;;;15.23;6.50;;;17.80;61.20;;;;;;5118946;27;20502;-86
2022/05/14 08:13:15;;;;;;;22.45;8.35;;;17.70;60.90;;;;;;5122785;28;20251;-86
2022/05/14 08:15:42;;;;;;;19.40;6.82;;;17.90;60.50;;;;;;5123887;28;20187;-87
2022/05/14 08:18:09;;;;;;;12.35;6.28;;;18.10;59.50;;;;;;5125623;28;20209;-86
2022/05/14 08:20:35;;;;;;;10.63;6.38;;;18.20;58.90;;;;;;5122397;28;20179;-86
2022/05/14 08:25:47;;;;;;;10.07;5.97;;;18.20;59.70;;;;;;5123834;28;20162;-86
2022/05/14 08:28:13;;;;;;;10.67;6.00;;;18.20;60.10;;;;;;5119338;28;20183;-86
2022/05/14 08:30:39;;;;;;;15.73;6.10;;;18.10;59.80;;;;;;5117789;28;20198;-86
2022/05/14 08:33:06;;;;;;;11.47;6.60;;;18.10;59.20;;;;;;5114879;28;20211;-86
2022/05/14 08:35:31;;;;;;;16.95;6.82;;;18.40;57.90;;;;;;5115651;28;20332;-88
2022/05/14 08:37:57;;;;;;;14.70;7.40;;;18.60;57.00;;;;;;5120340;27;20679;-86
2022/05/14 08:40:42;;;;;;;13.47;7.20;;;18.70;57.00;;;;;;5118829;28;20551;-86
2022/05/14 08:43:21;;;;;;;16.90;6.55;;;18.70;57.30;;;;;;5117522;28;20405;-86
2022/05/14 08:45:47;;;;;;;20.30;7.03;;;18.70;57.50;;;;;;5118280;28;20179;-87
2022/05/14 08:48:33;;;;;;;14.80;6.10;;;18.50;58.30;;;;;;5118382;28;20175;-86
2022/05/14 08:51:18;;;;;;;15.65;6.07;;;18.40;58.60;;;;;;5119261;28;20159;-88
2022/05/14 08:53:47;;;;;;;12.50;5.20;;;18.60;57.60;;;;;;5115386;28;20170;-86
2022/05/14 08:56:21;;;;;;;17.58;6.05;;;18.40;58.80;;;;;;5116488;28;20320;-86
2022/05/14 08:59:15;;;;;;;10.80;5.15;;;18.40;58.40;;;;;;5113846;28;20698;-87
2022/05/14 09:01:45;;;;;;;14.15;7.18;;;18.60;57.20;;;;;;5114258;28;20248;-86
2022/05/14 09:04:13;;;;;;;19.25;6.40;;;18.90;56.20;;;;;;5115352;28;20159;-87
2022/05/14 09:06:40;;;;;;;10.25;5.10;;;18.90;56.30;;;;;;5114363;28;20176;-87
2022/05/14 09:09:08;;;;;;;16.85;6.03;;;18.80;57.50;;;;;;5114245;28;20195;-88
2022/05/14 09:11:45;;;;;;;11.25;5.53;;;18.60;58.50;;;;;;5115444;28;20183;-87
2022/05/14 09:14:30;;;;;;;11.45;5.10;;;18.90;57.90;;;;;;5114611;28;20221;-88
2022/05/14 09:17:20;;;;;;;13.27;5.25;;;19.10;56.20;;;;;;5116008;28;20206;-89
2022/05/14 09:19:49;;;;;;;6.82;4.95;;;19.20;55.20;;;;;;5120483;28;20202;-88
2022/05/14 09:23:02;;;;;;;17.52;5.55;;;19.30;55.90;;;;;;5115644;28;20171;-87
2022/05/14 09:25:32;;;;;;;10.60;5.80;;;19.30;55.90;;;;;;5113730;28;20167;-88
2022/05/14 09:28:05;;;;;;;17.88;7.22;;;19.00;56.00;;;;;;5114630;28;20784;-89
2022/05/14 09:30:39;;;;;;;9.65;4.47;;;18.70;56.70;;;;;;5114050;28;20285;-88
2022/05/14 09:33:09;;;;;;;11.32;4.72;;;18.60;57.30;;;;;;5114011;28;20182;-87
2022/05/14 09:35:35;;;;;;;12.98;5.10;;;18.90;56.80;;;;;;5114932;28;20274;-88
2022/05/14 09:38:12;;;;;;;19.63;6.80;;;19.10;56.80;;;;;;5114365;28;20199;-88
2022/05/14 09:40:38;;;;;;;13.40;5.22;;;19.40;55.10;;;;;;5113950;28;20253;-88
2022/05/14 09:43:16;;;;;;;14.15;5.95;;;19.40;55.40;;;;;;5115430;28;20175;-87
2022/05/14 09:46:07;;;;;;;16.45;6.47;;;19.20;55.20;;;;;;5116302;28;20650;-88
2022/05/14 09:48:51;;;;;;;9.63;4.20;;;18.90;56.20;;;;;;5116414;28;20274;-87
2022/05/14 09:51:37;;;;;;;8.05;5.05;;;18.80;56.70;;;;;;5118248;28;20199;-88
2022/05/14 09:54:30;;;;;;;15.63;5.57;;;18.80;56.80;;;;;;5123760;28;20183;-88
2022/05/14 09:57:21;;;;;;;8.73;4.65;;;19.00;57.10;;;;;;5129148;28;20187;-87
2022/05/14 09:59:58;;;;;;;20.92;5.30;;;19.40;55.10;;;;;;5117677;28;20667;-88
2022/05/14 10:03:16;;;;;;;15.52;5.20;;;19.40;55.10;;;;;;5115368;28;20164;-87
2022/05/14 10:06:20;;;;;;;9.40;4.18;;;19.30;55.30;;;;;;5118340;28;20168;-88
2022/05/14 10:09:15;;;;;;;13.15;4.93;;;19.30;56.30;;;;;;5119974;28;20214;-88
2022/05/14 10:11:45;;;;;;;12.30;5.40;;;19.40;55.20;;;;;;5025829;28;20700;-87
2022/05/14 10:14:20;;;;;;;14.23;4.65;;;19.30;54.40;;;;;;5113692;28;20193;-87
2022/05/14 10:17:19;;;;;;;9.38;4.97;;;19.30;54.10;;;;;;5113578;28;20650;-87
2022/05/14 10:20:16;;;;;;;13.35;5.43;;;19.20;54.80;;;;;;5114581;28;20216;-87
2022/05/14 10:29:21;;;;;;;10.25;4.95;;;19.40;56.20;;;;;;5120551;28;20236;-87
2022/05/14 10:32:20;;;;;;;16.50;5.30;;;19.50;55.30;;;;;;5121986;28;20201;-88
2022/05/14 10:34:48;;;;;;;12.20;5.40;;;19.50;55.30;;;;;;5120980;28;20172;-87
2022/05/14 10:37:31;;;;;;;10.70;4.50;;;19.70;54.50;;;;;;5115629;28;20206;-87
2022/05/14 10:40:13;;;;;;;9.70;4.82;;;19.70;54.00;;;;;;5116880;28;20195;-87
2022/05/14 10:43:08;;;;;;;12.93;4.80;;;19.90;53.70;;;;;;5118116;28;20824;-87
2022/05/14 10:45:42;;;;;;;15.90;6.40;;;20.00;53.60;;;;;;5117995;28;20647;-88
2022/05/14 10:48:22;;;;;;;12.57;6.18;;;19.80;53.20;;;;;;5116618;28;20261;-87
2022/05/14 10:50:48;;;;;;;15.97;5.17;;;19.70;53.80;;;;;;5117818;28;20167;-87
2022/05/14 10:53:15;;;;;;;14.23;6.00;;;19.60;53.90;;;;;;5118776;28;20944;-87
2022/05/14 10:55:56;;;;;;;18.95;6.13;;;19.60;53.20;;;;;;5118096;28;20172;-88
2022/05/14 10:58:39;;;;;;;6.95;4.03;;;19.50;52.90;;;;;;5117277;28;20286;-87
2022/05/14 11:01:31;;;;;;;8.40;4.50;;;19.60;53.60;;;;;;5116997;28;20167;-89
2022/05/14 11:04:19;;;;;;;10.50;5.67;;;19.90;52.10;;;;;;5117972;28;20401;-87
2022/05/14 11:06:50;;;;;;;12.98;6.05;;;20.20;50.80;;;;;;5116542;28;20406;-87
2022/05/14 11:09:30;;;;;;;17.88;6.65;;;20.10;51.30;;;;;;5116272;28;20224;-87
2022/05/14 11:12:08;;;;;;;24.93;6.07;;;20.00;51.70;;;;;;5116255;28;20163;-87
2022/05/14 11:14:47;;;;;;;11.65;6.22;;;19.90;51.70;;;;;;5117551;28;20389;-88
2022/05/14 11:17:26;;;;;;;10.70;5.65;;;19.70;51.60;;;;;;5116493;28;20218;-87
2022/05/14 11:20:04;;;;;;;12.00;4.80;;;19.60;50.90;;;;;;5117453;28;20191;-88
2022/05/14 11:22:33;;;;;;;12.98;5.80;;;19.90;51.30;;;;;;5120901;28;20546;-89
2022/05/14 11:25:13;;;;;;;13.48;5.18;;;19.80;50.40;;;;;;5120068;28;20172;-88
2022/05/14 11:27:41;;;;;;;13.33;5.43;;;19.80;50.80;;;;;;5115486;28;20174;-87
2022/05/14 11:30:10;;;;;;;9.40;4.60;;;20.00;50.10;;;;;;5117978;28;20429;-87
2022/05/14 11:32:47;;;;;;;12.90;5.60;;;20.00;50.90;;;;;;5120392;28;20966;-86
2022/05/14 11:35:13;;;;;;;18.47;4.90;;;20.10;49.60;;;;;;5123473;28;20404;-88
2022/05/14 11:37:44;;;;;;;11.10;5.70;;;20.20;50.60;;;;;;5117696;28;20452;-87
2022/05/14 11:40:28;;;;;;;9.73;4.40;;;20.20;51.10;;;;;;5116979;28;20444;-87
2022/05/14 11:43:11;;;;;;;9.90;4.33;;;20.40;51.10;;;;;;5118159;28;20398;-87
2022/05/14 11:45:55;;;;;;;14.00;5.87;;;20.60;50.90;;;;;;5116228;28;20405;-86
2022/05/14 11:48:33;;;;;;;10.43;5.27;;;20.60;50.80;;;;;;5116639;28;20413;-87
2022/05/14 11:51:36;;;;;;;16.37;6.43;;;20.30;50.80;;;;;;5116110;28;20477;-87
2022/05/14 11:57:17;;;;;;;10.70;5.93;;;20.40;48.90;;;;;;5099601;28;20192;-86
2022/05/14 11:59:57;;;;;;;10.77;5.60;;;20.40;48.00;;;;;;5117313;28;20466;-87
2022/05/14 12:02:58;;;;;;;12.80;5.77;;;20.60;45.80;;;;;;5117277;28;20401;-87
2022/05/14 12:05:40;;;;;;;10.80;5.50;;;20.50;48.00;;;;;;5116598;28;20393;-87
2022/05/14 12:08:12;;;;;;;10.37;4.50;;;20.40;54.50;;;;;;5114727;28;20995;-87
2022/05/14 12:10:48;;;;;;;8.83;5.50;;;20.20;52.60;;;;;;5116404;28;20888;-89
2022/05/14 12:13:32;;;;;;;12.60;5.77;;;20.00;52.80;;;;;;5115410;28;20488;-87
2022/05/14 12:16:00;;;;;;;14.10;6.50;;;19.90;52.50;;;;;;5112073;28;20516;-88
2022/05/14 12:18:27;;;;;;;12.90;4.87;;;20.00;52.90;;;;;;5095094;28;20461;-87
2022/05/14 12:21:06;;;;;;;10.30;4.63;;;20.00;53.70;;;;;;5098929;28;20488;-87
2022/05/14 12:23:36;;;;;;;12.17;5.67;;;20.40;48.20;;;;;;5117195;28;20408;-87
2022/05/14 12:26:19;;;;;;;15.70;5.70;;;20.50;50.40;;;;;;5117792;28;20469;-87
2022/05/14 12:28:45;;;;;;;7.00;5.00;;;20.70;46.80;;;;;;5132828;28;20987;-87
2022/05/14 12:34:34;;;;;;;11.77;5.43;;;20.60;51.10;;;;;;5130119;28;20388;-86
2022/05/14 12:37:02;;;;;;;8.60;4.30;;;20.70;50.90;;;;;;5117010;28;20530;-87
2022/05/14 12:39:30;;;;;;;8.07;4.97;;;20.70;49.70;;;;;;5117084;28;20456;-87
2022/05/14 12:42:06;;;;;;;9.73;4.47;;;20.90;45.20;;;;;;5115938;28;20447;-87
2022/05/14 12:44:38;;;;;;;14.87;5.40;;;21.00;47.10;;;;;;5116800;28;20401;-87
2022/05/14 12:47:09;;;;;;;16.23;6.23;;;20.90;48.30;;;;;;5116789;28;20424;-87
2022/05/14 12:49:43;;;;;;;9.80;6.23;;;20.60;47.70;;;;;;5098587;28;20641;-86
2022/05/14 12:52:15;;;;;;;9.13;4.30;;;20.60;45.20;;;;;;5123167;28;20396;-88
2022/05/14 12:54:55;;;;;;;8.40;5.20;;;20.90;44.90;;;;;;5106099;28;20424;-87
2022/05/14 12:57:22;;;;;;;11.63;6.50;;;21.00;46.30;;;;;;5126065;28;20547;-87
2022/05/14 12:59:49;;;;;;;9.67;6.20;;;21.00;45.00;;;;;;5125111;28;20433;-87
2022/05/14 13:02:29;;;;;;;15.40;6.97;;;21.20;45.60;;;;;;5121544;28;20785;-86
2022/05/14 13:04:56;;;;;;;6.73;4.93;;;21.50;47.10;;;;;;5126368;27;20508;-86
2022/05/14 13:07:23;;;;;;;8.03;7.23;;;21.60;47.20;;;;;;5115234;28;20409;-86
2022/05/14 13:09:52;;;;;;;12.40;7.87;;;21.60;47.10;;;;;;5114831;28;20827;-87
2022/05/14 13:12:51;;;;;;;10.70;7.00;;;21.70;46.30;;;;;;5114291;28;20405;-87
2022/05/14 13:15:17;;;;;;;20.40;7.37;;;21.60;46.50;;;;;;5115398;28;20393;-86
2022/05/14 13:17:43;;;;;;;20.20;10.00;;;21.80;43.90;;;;;;5115066;28;20449;-86
2022/05/14 13:20:21;;;;;;;12.80;8.83;;;21.30;46.90;;;;;;5114724;28;20492;-87
2022/05/14 13:22:47;;;;;;;20.60;9.00;;;21.30;44.50;;;;;;5114467;28;20502;-86
2022/05/14 13:25:34;;;;;;;13.30;9.10;;;21.40;46.60;;;;;;5115602;28;20481;-87